Rechercher aéroport 
image banner adimage banner adimage banner ad
image banner ad

CL54 - Westside Towers

Situé à Los Angeles, United States

ICAO - CL54, IATA -

Données fournies par Airmate  

Information générale

Coordonnées: N34°1'59" W118°27'5"
Élévation : 325 feet MSL.
Variation magnétique : 14° East
Voir autres Aéroports à California

Données opérationnelles

Special qualification required
Heure actuelle UTC:
Heure actuelle locale:
Météo à : KSMO - Santa Monica Muni ( 2 km )
METAR: KSMO 292351Z 23009KT 10SM CLR 21/15 A2987 RMK AO2 SLP111 T02060150 10233 20200 57012
TAF: KSMO 292348Z 3000/3024 23008KT P6SM SKC FM300400 VRB03KT P6SM SKC FM301100 VRB03KT P6SM OVC008 FM301700 23006KT P6SM SCT010 FM302000 26012KT P6SM SKC
Voir NOTAMs / SUP AIP / TFR affectant cet aéroport [VIEW]
Fréquences de communication: [VIEW]

Pistes:

Coordonnées de l'aéroport

Adresse: Los Angeles United States

Vue satellite de CL54